Time;durP1;ratioP1;P1;durP2;ratioP2;P2;SDS_P1;SDS_P2;PMS_P1;PMS_P2;Temp;Humidity;BMP_temperature;BMP_pressure;BME280_temperature;BME280_humidity;BME280_pressure;Samples;Min_cycle;Max_cycle;Signal;HPM_P1;HPM_P2
2023/09/03 00:01:38;;;;;;;38.97;34.78;;;;;;;14.26;100.00;102486.66;5114108;28;20039;-55
2023/09/03 00:04:03;;;;;;;40.78;33.92;;;;;;;14.23;100.00;102486.72;5114000;28;20034;-54
2023/09/03 00:06:29;;;;;;;45.03;36.75;;;;;;;14.15;100.00;102483.38;5113821;28;20065;-56
2023/09/03 00:08:54;;;;;;;40.88;35.55;;;;;;;13.80;100.00;102426.75;5095404;28;20080;-57
2023/09/03 00:11:19;;;;;;;40.03;35.25;;;;;;;13.72;100.00;102410.13;5095757;28;20035;-55
2023/09/03 00:13:45;;;;;;;46.08;37.38;;;;;;;14.16;100.00;102495.69;5095643;28;20186;-55
2023/09/03 00:16:10;;;;;;;43.33;36.13;;;;;;;13.70;100.00;102432.22;5113824;28;20050;-56
2023/09/03 00:18:36;;;;;;;46.33;38.10;;;;;;;13.80;100.00;102452.34;5114318;28;20038;-58
2023/09/03 00:21:05;;;;;;;48.47;38.97;;;;;;;14.15;100.00;102520.44;5113669;28;20037;-56
2023/09/03 00:23:31;;;;;;;46.67;38.08;;;;;;;13.71;100.00;102424.28;5095370;28;20100;-54
2023/09/03 00:25:57;;;;;;;46.13;38.28;;;;;;;14.08;100.00;102483.50;5113708;28;20042;-55
2023/09/03 00:28:23;;;;;;;45.38;36.75;;;;;;;13.96;100.00;102465.22;5095350;28;20506;-54
2023/09/03 00:31:08;;;;;;;46.13;37.78;;;;;;;14.06;100.00;102479.16;5113502;28;20036;-53
2023/09/03 00:33:34;;;;;;;49.47;37.83;;;;;;;13.93;100.00;102473.22;5112979;28;20027;-55
2023/09/03 00:36:01;;;;;;;45.78;36.35;;;;;;;13.39;100.00;102393.19;5113649;28;20039;-58
2023/09/03 00:38:27;;;;;;;41.33;36.55;;;;;;;13.80;100.00;102477.03;5113639;28;20035;-55
2023/09/03 00:40:53;;;;;;;44.20;37.65;;;;;;;13.73;100.00;102467.47;5113452;28;20027;-55
2023/09/03 00:43:18;;;;;;;48.55;38.40;;;;;;;13.23;100.00;102375.84;5078237;28;20027;-54
2023/09/03 00:45:45;;;;;;;48.85;39.45;;;;;;;13.77;100.00;102473.56;5113536;28;20169;-55
2023/09/03 00:48:12;;;;;;;47.78;37.50;;;;;;;13.72;100.00;102480.72;5095064;28;20461;-56
2023/09/03 00:50:37;;;;;;;45.88;37.72;;;;;;;13.67;100.00;102464.03;5095081;28;20381;-53
2023/09/03 00:53:05;;;;;;;46.83;37.63;;;;;;;13.62;100.00;102485.31;5095076;28;20023;-52
2023/09/03 00:55:32;;;;;;;48.20;38.85;;;;;;;13.58;100.00;102494.19;5113156;28;20034;-56
2023/09/03 00:57:58;;;;;;;46.55;39.33;;;;;;;13.54;100.00;102479.31;5112478;28;20044;-56
2023/09/03 01:00:23;;;;;;;48.13;38.63;;;;;;;13.47;100.00;102460.03;5112924;28;20038;-58
2023/09/03 01:02:52;;;;;;;54.38;40.03;;;;;;;13.59;100.00;102472.16;5094750;28;20035;-56
2023/09/03 01:05:18;;;;;;;48.58;38.25;;;;;;;13.59;100.00;102471.28;5113170;28;20027;-58
2023/09/03 01:10:17;;;;;;;51.40;39.15;;;;;;;13.15;100.00;102379.53;5050414;28;20132;-54
2023/09/03 01:12:47;;;;;;;46.85;37.38;;;;;;;13.57;100.00;102457.22;5051118;28;20124;-52
2023/09/03 01:15:14;;;;;;;48.60;37.20;;;;;;;13.52;100.00;102465.22;5018213;28;20064;-52
2023/09/03 01:18:00;;;;;;;45.83;37.78;;;;;;;13.33;100.00;102440.91;5052264;28;20037;-53
2023/09/03 01:20:31;;;;;;;46.40;38.15;;;;;;;13.42;100.00;102467.19;5050955;28;20041;-55
2023/09/03 01:23:24;;;;;;;51.22;38.88;;;;;;;13.41;100.00;102473.34;5034163;28;20486;-51
2023/09/03 01:26:08;;;;;;;49.38;37.58;;;;;;;13.20;100.00;102447.28;5052421;28;20040;-55
2023/09/03 01:28:39;;;;;;;53.90;40.97;;;;;;;13.34;100.00;102468.19;5052043;28;20044;-53
2023/09/03 01:31:11;;;;;;;57.70;42.90;;;;;;;13.25;100.00;102447.22;5050888;28;20064;-54
2023/09/03 01:33:38;;;;;;;61.22;43.88;;;;;;;13.11;100.00;102431.59;5034287;28;20428;-51
2023/09/03 01:36:06;;;;;;;57.05;42.65;;;;;;;13.07;100.00;102415.78;5034648;28;20478;-52
2023/09/03 01:38:32;;;;;;;56.72;40.47;;;;;;;13.51;100.00;102482.00;5034136;28;20044;-55
2023/09/03 01:40:59;;;;;;;52.90;40.83;;;;;;;13.54;100.00;102493.38;5052177;28;20037;-55
2023/09/03 01:43:24;;;;;;;62.97;42.10;;;;;;;13.10;100.00;102428.97;5051975;28;20036;-55
2023/09/03 01:45:59;;;;;;;57.42;42.33;;;;;;;13.61;100.00;102539.13;5051920;28;20115;-52
2023/09/03 01:48:27;;;;;;;57.10;41.38;;;;;;;13.64;100.00;102517.91;5051794;28;20425;-55
2023/09/03 01:51:00;;;;;;;54.65;39.35;;;;;;;13.65;100.00;102514.38;5052210;28;20478;-57
2023/09/03 01:53:36;;;;;;;54.65;39.92;;;;;;;13.66;100.00;102528.47;5033986;28;20056;-55
2023/09/03 01:56:02;;;;;;;49.75;37.38;;;;;;;13.60;100.00;102520.66;5050549;28;20079;-54
2023/09/03 01:58:30;;;;;;;46.15;35.45;;;;;;;13.60;100.00;102525.94;5051175;28;20037;-50
2023/09/03 02:00:56;;;;;;;48.38;34.65;;;;;;;13.23;100.00;102464.88;5034359;28;20466;-54
2023/09/03 02:03:23;;;;;;;42.22;34.13;;;;;;;13.60;100.00;102532.06;5052031;28;20037;-55
2023/09/03 02:05:49;;;;;;;42.92;33.65;;;;;;;13.59;100.00;102513.59;5050518;28;20486;-56
2023/09/03 02:08:14;;;;;;;42.22;31.15;;;;;;;13.58;100.00;102517.13;5033860;28;20106;-57
2023/09/03 02:10:40;;;;;;;39.13;30.17;;;;;;;12.38;100.00;102310.38;5055652;28;20049;-51
2023/09/03 02:13:05;;;;;;;38.58;30.80;;;;;;;13.58;100.00;102522.44;5055889;28;20045;-53
2023/09/03 02:15:30;;;;;;;37.38;30.02;;;;;;;13.47;100.00;102497.06;5055903;28;20033;-51
2023/09/03 02:17:56;;;;;;;44.80;32.38;;;;;;;13.51;100.00;102516.41;5038004;28;20076;-52
2023/09/03 02:20:22;;;;;;;37.67;30.00;;;;;;;13.47;100.00;102525.28;5021524;28;20497;-56
2023/09/03 02:22:48;;;;;;;39.75;30.48;;;;;;;13.44;100.00;102514.75;5055744;28;20486;-51
2023/09/03 02:25:13;;;;;;;38.05;29.58;;;;;;;13.41;100.00;102512.16;5055468;28;20128;-52
2023/09/03 02:27:39;;;;;;;35.30;27.50;;;;;;;13.09;100.00;102467.75;5055419;28;20174;-53
2023/09/03 02:30:05;;;;;;;33.75;26.35;;;;;;;13.03;100.00;102436.09;5055367;28;20032;-57
2023/09/03 02:32:30;;;;;;;32.80;26.27;;;;;;;13.32;100.00;102483.22;5055123;28;20033;-56
2023/09/03 02:34:55;;;;;;;33.38;26.90;;;;;;;13.32;100.00;102470.88;5055447;28;20040;-56
2023/09/03 02:37:21;;;;;;;35.47;28.10;;;;;;;13.30;100.00;102463.88;5055321;28;20041;-58
2023/09/03 02:39:46;;;;;;;34.00;26.30;;;;;;;13.23;100.00;102460.47;5055186;28;20432;-56
2023/09/03 02:42:11;;;;;;;34.75;26.90;;;;;;;12.85;100.00;102384.44;5055154;28;20041;-54
2023/09/03 02:44:38;;;;;;;32.00;25.95;;;;;;;13.22;100.00;102455.22;5055443;28;20029;-53
2023/09/03 02:47:03;;;;;;;32.83;26.10;;;;;;;12.99;100.00;102448.50;5055310;28;20029;-53
2023/09/03 02:49:29;;;;;;;35.70;27.00;;;;;;;13.11;100.00;102471.25;5055060;28;20082;-55
2023/09/03 02:51:54;;;;;;;34.65;26.27;;;;;;;13.03;100.00;102461.66;5055421;28;20040;-51
2023/09/03 02:54:19;;;;;;;33.28;25.50;;;;;;;12.97;100.00;102463.53;5037295;28;20120;-52
2023/09/03 02:56:45;;;;;;;37.70;27.85;;;;;;;12.59;100.00;102407.78;5055004;28;20123;-56
2023/09/03 02:59:10;;;;;;;35.75;27.25;;;;;;;13.03;100.00;102478.41;5055252;28;20071;-55
2023/09/03 03:01:36;;;;;;;37.90;28.00;;;;;;;12.81;100.00;102443.50;5055137;28;20112;-54
2023/09/03 03:04:01;;;;;;;34.05;26.92;;;;;;;12.79;100.00;102416.25;5055172;28;20068;-51
2023/09/03 03:06:26;;;;;;;38.38;26.70;;;;;;;13.14;100.00;102481.75;5054640;28;20037;-55
2023/09/03 03:08:52;;;;;;;33.70;26.50;;;;;;;13.10;100.00;102488.03;5054300;28;20065;-54
2023/09/03 03:11:17;;;;;;;34.22;26.67;;;;;;;13.14;100.00;102513.50;5054412;28;20162;-55
2023/09/03 03:13:45;;;;;;;34.13;26.13;;;;;;;13.01;100.00;102496.06;5054320;28;20496;-53
2023/09/03 03:16:12;;;;;;;34.95;26.80;;;;;;;13.17;100.00;102523.13;5054796;28;20032;-50
2023/09/03 03:18:40;;;;;;;30.23;23.90;;;;;;;13.21;100.00;102519.56;5054683;28;20037;-54
2023/09/03 03:21:11;;;;;;;36.88;26.33;;;;;;;13.23;100.00;102533.63;5054218;28;20478;-55
2023/09/03 03:23:37;;;;;;;33.33;25.23;;;;;;;12.45;100.00;102408.88;5036534;28;20044;-51
2023/09/03 03:26:03;;;;;;;28.40;24.35;;;;;;;13.17;100.00;102542.53;5054757;28;20039;-56
2023/09/03 03:28:35;;;;;;;29.35;24.05;;;;;;;13.02;100.00;102508.38;5054363;28;20072;-54
2023/09/03 03:31:17;;;;;;;32.10;24.58;;;;;;;13.21;100.00;102536.31;5054390;28;20025;-56
2023/09/03 03:33:44;;;;;;;32.35;24.70;;;;;;;13.21;100.00;102525.72;5036614;28;20036;-54
2023/09/03 03:36:13;;;;;;;31.23;24.17;;;;;;;12.76;100.00;102453.28;5054090;28;20424;-55
2023/09/03 03:38:39;;;;;;;31.08;24.02;;;;;;;13.05;100.00;102518.03;5019680;28;20397;-55
2023/09/03 03:41:24;;;;;;;32.55;24.33;;;;;;;13.13;100.00;102526.75;5053964;28;20037;-55
2023/09/03 03:43:51;;;;;;;30.52;24.05;;;;;;;13.09;100.00;102525.91;5053851;28;20110;-55
2023/09/03 03:46:18;;;;;;;31.27;24.73;;;;;;;12.62;100.00;102457.03;5036360;28;20061;-57
2023/09/03 03:48:45;;;;;;;33.80;25.17;;;;;;;13.09;100.00;102533.84;5053971;28;20025;-55
2023/09/03 03:51:11;;;;;;;31.30;24.45;;;;;;;12.64;100.00;102464.03;5036255;28;20033;-56
2023/09/03 03:53:36;;;;;;;34.80;25.50;;;;;;;13.12;100.00;102548.78;5036480;28;20102;-55
2023/09/03 03:56:03;;;;;;;33.05;24.70;;;;;;;13.14;100.00;102544.34;5036305;28;20029;-55
2023/09/03 03:58:31;;;;;;;31.60;24.15;;;;;;;12.70;100.00;102453.38;5053819;28;20494;-55
2023/09/03 04:00:57;;;;;;;30.17;24.02;;;;;;;12.68;100.00;102454.31;5053700;28;20429;-51
2023/09/03 04:03:23;;;;;;;32.38;23.73;;;;;;;13.12;100.00;102531.16;5053877;28;20037;-55
2023/09/03 04:06:01;;;;;;;28.30;23.15;;;;;;;12.71;100.00;102467.47;5036126;28;20048;-55
2023/09/03 04:08:28;;;;;;;36.45;24.42;;;;;;;13.06;100.00;102525.06;5035534;28;20037;-53
2023/09/03 04:11:01;;;;;;;32.08;25.00;;;;;;;13.09;100.00;102536.50;5053480;28;20041;-57
2023/09/03 04:13:27;;;;;;;32.10;24.38;;;;;;;12.73;100.00;102468.31;5054144;28;20029;-58
2023/09/03 04:15:53;;;;;;;35.47;25.00;;;;;;;12.74;100.00;102468.31;5053399;28;20043;-53
2023/09/03 04:18:19;;;;;;;34.47;25.23;;;;;;;12.75;100.00;102455.97;5035796;28;20108;-54
2023/09/03 04:20:44;;;;;;;32.85;23.92;;;;;;;13.19;100.00;102534.59;5053477;28;20160;-57
2023/09/03 04:23:09;;;;;;;29.95;23.75;;;;;;;13.07;100.00;102509.19;5053526;28;20049;-52
2023/09/03 04:25:35;;;;;;;31.48;23.67;;;;;;;13.16;100.00;102532.88;5053442;28;20029;-52
2023/09/03 04:28:01;;;;;;;33.63;24.50;;;;;;;13.15;100.00;102546.97;5053257;28;20037;-55
2023/09/03 04:30:26;;;;;;;30.70;23.52;;;;;;;13.14;100.00;102542.56;5053168;28;20048;-56
2023/09/03 04:32:52;;;;;;;28.25;22.00;;;;;;;13.13;100.00;102539.97;5052489;28;20033;-52
2023/09/03 04:35:17;;;;;;;29.70;22.63;;;;;;;13.04;100.00;102525.09;5053327;28;20470;-53
2023/09/03 04:37:43;;;;;;;31.00;24.60;;;;;;;13.05;100.00;102523.34;5053455;28;20041;-55
2023/09/03 04:40:09;;;;;;;32.08;23.48;;;;;;;12.85;100.00;102490.13;5053056;28;20036;-54
2023/09/03 04:42:34;;;;;;;32.22;23.52;;;;;;;12.79;100.00;102466.44;5052908;28;20102;-52
2023/09/03 04:44:59;;;;;;;30.77;23.00;;;;;;;13.16;100.00;102535.53;5052894;28;20048;-55
2023/09/03 04:47:25;;;;;;;31.52;22.67;;;;;;;13.16;100.00;102546.09;5053012;28;20473;-55
2023/09/03 04:49:50;;;;;;;33.55;23.88;;;;;;;12.69;100.00;102469.28;5052936;28;20035;-55
2023/09/03 04:52:16;;;;;;;34.03;24.30;;;;;;;13.13;100.00;102548.78;5035245;28;20470;-55
2023/09/03 04:54:41;;;;;;;32.00;23.60;;;;;;;12.69;100.00;102483.38;5052786;28;20040;-54
2023/09/03 04:57:07;;;;;;;30.95;22.85;;;;;;;12.62;100.00;102480.81;5035037;28;20094;-57
2023/09/03 04:59:33;;;;;;;34.75;25.42;;;;;;;13.08;100.00;102558.53;5052596;28;20060;-52
2023/09/03 05:01:58;;;;;;;33.15;23.52;;;;;;;12.61;100.00;102479.09;5052783;28;20072;-51
2023/09/03 05:04:23;;;;;;;31.08;22.95;;;;;;;13.04;100.00;102556.81;5052541;28;20551;-56
2023/09/03 05:06:49;;;;;;;32.65;23.52;;;;;;;12.90;100.00;102548.22;5052570;28;20040;-55
2023/09/03 05:09:14;;;;;;;34.35;23.98;;;;;;;12.97;100.00;102561.31;5052523;28;20052;-52
2023/09/03 05:11:42;;;;;;;33.83;23.92;;;;;;;12.61;100.00;102493.16;5052777;28;20391;-53
2023/09/03 05:14:07;;;;;;;33.95;24.65;;;;;;;13.02;100.00;102570.97;5052423;28;20029;-56
2023/09/03 05:16:32;;;;;;;34.00;24.65;;;;;;;12.63;100.00;102485.22;5052441;28;20086;-54
2023/09/03 05:19:04;;;;;;;33.90;23.90;;;;;;;13.09;100.00;102581.44;5052233;28;20044;-54
2023/09/03 05:21:29;;;;;;;33.42;23.92;;;;;;;13.13;100.00;102575.22;5052310;28;20075;-52
2023/09/03 05:23:55;;;;;;;38.13;25.27;;;;;;;13.20;100.00;102589.19;5052384;28;20056;-54
2023/09/03 05:26:20;;;;;;;32.50;23.20;;;;;;;13.23;100.00;102591.78;5052035;28;20041;-55
2023/09/03 05:28:45;;;;;;;32.45;24.55;;;;;;;13.26;100.00;102581.16;5034023;28;20110;-56
2023/09/03 05:31:11;;;;;;;33.47;24.02;;;;;;;13.25;100.00;102580.28;5034702;28;20029;-54
2023/09/03 05:33:36;;;;;;;34.55;25.23;;;;;;;13.23;100.00;102568.88;5052620;28;20040;-55
2023/09/03 05:36:02;;;;;;;33.25;24.00;;;;;;;12.96;100.00;102514.63;5052327;28;20033;-53
2023/09/03 05:38:27;;;;;;;35.03;25.17;;;;;;;13.47;100.00;102592.28;5052380;28;20033;-57
2023/09/03 05:40:52;;;;;;;32.47;23.80;;;;;;;13.53;100.00;102600.13;5051991;28;20037;-53
2023/09/03 05:43:18;;;;;;;33.58;23.80;;;;;;;13.23;100.00;102541.56;5051726;28;20037;-51
2023/09/03 05:45:44;;;;;;;32.67;23.65;;;;;;;13.20;100.00;102523.09;5052191;28;20076;-54
2023/09/03 05:48:09;;;;;;;30.23;22.88;;;;;;;13.24;100.00;102530.09;5051983;28;20045;-54
2023/09/03 05:50:35;;;;;;;31.67;23.42;;;;;;;13.28;100.00;102543.22;5052095;28;20087;-55
2023/09/03 05:53:00;;;;;;;32.05;22.52;;;;;;;13.68;100.00;102604.28;5052053;28;20065;-49
2023/09/03 05:55:25;;;;;;;31.33;23.40;;;;;;;13.42;100.00;102553.59;5051976;28;20033;-50
2023/09/03 05:57:54;;;;;;;32.55;23.05;;;;;;;13.41;100.00;102552.72;5034082;28;20059;-54
2023/09/03 06:00:19;;;;;;;31.20;22.95;;;;;;;13.86;100.00;102627.78;5052095;28;20504;-52
2023/09/03 06:02:44;;;;;;;30.02;22.35;;;;;;;13.92;100.00;102629.47;5049589;28;20029;-53
2023/09/03 06:05:10;;;;;;;30.52;22.55;;;;;;;13.99;100.00;102641.66;5051624;28;20044;-56
2023/09/03 06:07:36;;;;;;;30.08;23.60;;;;;;;13.70;100.00;102578.66;5051516;28;20033;-53
2023/09/03 06:10:01;;;;;;;29.30;22.38;;;;;;;14.05;100.00;102637.13;5033664;28;20052;-52
2023/09/03 06:12:26;;;;;;;29.45;23.35;;;;;;;13.68;100.00;102559.31;5033830;28;20041;-53
2023/09/03 06:14:52;;;;;;;27.20;21.75;;;;;;;14.20;100.00;102649.22;5051753;28;20045;-54
2023/09/03 06:17:17;;;;;;;32.17;22.98;;;;;;;14.20;100.00;102643.06;5050465;28;20061;-56
2023/09/03 06:19:46;;;;;;;27.27;21.42;;;;;;;14.28;100.00;102672.91;5051685;28;20033;-54
2023/09/03 06:22:11;;;;;;;26.80;21.45;;;;;;;13.19;100.00;102469.31;5033910;28;20033;-54
2023/09/03 06:24:36;;;;;;;26.73;21.50;;;;;;;13.93;100.00;102597.66;5051681;28;20371;-54
2023/09/03 06:27:02;;;;;;;25.70;21.50;;;;;;;14.35;100.00;102666.63;5051567;28;20048;-55
2023/09/03 06:29:27;;;;;;;26.10;21.13;;;;;;;14.01;100.00;102587.78;5050371;28;20083;-54
2023/09/03 06:31:53;;;;;;;26.92;20.20;;;;;;;14.56;100.00;102674.19;5051866;28;20123;-55
2023/09/03 06:34:20;;;;;;;24.58;20.63;;;;;;;14.60;100.00;102668.78;5050351;28;20485;-53
2023/09/03 06:36:45;;;;;;;25.70;20.17;;;;;;;14.69;100.00;102669.47;5051678;28;20040;-57
2023/09/03 06:39:11;;;;;;;22.92;19.17;;;;;;;14.35;100.00;102595.13;5050213;28;20025;-54
2023/09/03 06:41:37;;;;;;;24.17;19.52;;;;;;;14.35;100.00;102579.22;5033687;28;20040;-54
2023/09/03 06:44:02;;;;;;;18.83;16.90;;;;;;;14.90;100.00;102659.31;5051718;28;20040;-53
2023/09/03 06:46:27;;;;;;;20.42;18.17;;;;;;;14.51;100.00;102578.84;5051531;28;20068;-54
2023/09/03 06:48:53;;;;;;;24.13;18.88;;;;;;;14.59;100.00;102562.81;5049984;28;20439;-53
2023/09/03 06:51:18;;;;;;;20.42;18.17;;;;;;;15.09;100.00;102647.38;5033560;28;20041;-57
2023/09/03 06:53:43;;;;;;;19.02;17.02;;;;;;;14.89;100.00;102595.69;5051182;28;20483;-55
2023/09/03 06:56:09;;;;;;;19.75;17.67;;;;;;;15.33;100.00;102637.13;5054398;28;20056;-53
2023/09/03 06:58:34;;;;;;;19.98;16.83;;;;;;;15.01;100.00;102569.78;5055173;28;20470;-53
2023/09/03 07:01:02;;;;;;;18.05;15.98;;;;;;;15.07;100.00;102561.69;5055102;28;20473;-54
2023/09/03 07:03:27;;;;;;;18.63;16.77;;;;;;;15.62;100.00;102646.16;5053667;28;20037;-51
2023/09/03 07:05:54;;;;;;;19.58;17.50;;;;;;;15.70;100.00;102630.06;5052904;28;20056;-53
2023/09/03 07:08:19;;;;;;;18.67;16.35;;;;;;;15.52;100.00;102593.34;5053301;28;20072;-55
2023/09/03 07:10:44;;;;;;;18.00;15.07;;;;;;;15.56;100.00;102569.34;5052592;28;20057;-55
2023/09/03 07:13:10;;;;;;;17.63;15.82;;;;;;;15.77;100.00;102602.41;5053132;28;20037;-55
2023/09/03 07:15:36;;;;;;;16.58;14.90;;;;;;;16.11;100.00;102655.53;5037062;28;20032;-52
2023/09/03 07:18:02;;;;;;;17.27;15.55;;;;;;;16.19;100.00;102656.19;5053268;28;20116;-52
2023/09/03 07:20:27;;;;;;;16.30;14.80;;;;;;;16.14;100.00;102623.59;5027350;28;20041;-54
2023/09/03 07:22:53;;;;;;;15.20;13.57;;;;;;;16.39;100.00;102656.53;5053209;28;20090;-51
2023/09/03 07:25:18;;;;;;;16.52;14.35;;;;;;;16.59;100.00;102674.59;5054463;28;20041;-53
2023/09/03 07:27:43;;;;;;;15.65;12.85;;;;;;;16.74;100.00;102674.16;5054420;28;20456;-57
2023/09/03 07:30:09;;;;;;;16.10;13.32;;;;;;;16.63;100.00;102642.59;5050951;28;20037;-54
2023/09/03 07:32:37;;;;;;;14.02;12.65;;;;;;;17.02;100.00;102691.06;5019749;28;20064;-54
2023/09/03 07:35:04;;;;;;;14.13;12.60;;;;;;;16.80;100.00;102611.03;5051429;28;20501;-53
2023/09/03 07:37:30;;;;;;;14.15;12.75;;;;;;;16.96;100.00;102618.56;5054530;28;20029;-55
2023/09/03 07:39:55;;;;;;;14.05;12.73;;;;;;;17.53;100.00;102696.56;5052689;28;20383;-54
2023/09/03 07:42:20;;;;;;;12.93;11.63;;;;;;;17.78;100.00;102707.31;5054322;28;20068;-57
2023/09/03 07:44:45;;;;;;;13.68;12.30;;;;;;;17.55;100.00;102638.84;5054230;28;20033;-55
2023/09/03 07:47:11;;;;;;;13.27;11.85;;;;;;;17.82;100.00;102653.03;5052762;28;20059;-53
2023/09/03 07:49:36;;;;;;;12.35;11.18;;;;;;;18.38;100.00;102713.25;5051259;28;20036;-54
2023/09/03 07:52:01;;;;;;;12.95;11.65;;;;;;;18.66;100.00;102712.28;5034170;28;20056;-53
2023/09/03 07:54:27;;;;;;;10.85;9.95;;;;;;;18.65;100.00;102654.53;5033947;28;20391;-54
2023/09/03 07:56:55;;;;;;;10.20;9.23;;;;;;;19.08;100.00;102655.50;5023560;28;20490;-54
2023/09/03 07:59:20;;;;;;;9.40;8.50;;;;;;;19.92;100.00;102733.13;5053814;28;20041;-54
2023/09/03 08:01:46;;;;;;;9.23;8.13;;;;;;;19.89;100.00;102701.19;5035895;28;20086;-53
2023/09/03 08:04:11;;;;;;;9.40;8.50;;;;;;;20.31;100.00;102695.00;5053790;28;20033;-55
2023/09/03 08:06:37;;;;;;;8.50;7.70;;;;;;;20.56;100.00;102692.97;4998807;28;20109;-55
2023/09/03 08:09:03;;;;;;;8.02;7.32;;;;;;;21.22;100.00;102753.28;5035315;28;20049;-56
2023/09/03 08:11:28;;;;;;;7.15;6.55;;;;;;;21.47;100.00;102753.88;5053796;28;20037;-56
2023/09/03 08:13:58;;;;;;;6.75;6.10;;;;;;;21.62;100.00;102717.44;5053166;28;20029;-54
2023/09/03 08:16:23;;;;;;;7.18;6.47;;;;;;;22.08;100.00;102761.63;5033384;28;20123;-53
2023/09/03 08:18:48;;;;;;;7.57;6.88;;;;;;;22.58;100.00;102773.31;5052527;28;20119;-58
2023/09/03 08:21:14;;;;;;;8.00;7.25;;;;;;;22.59;100.00;102721.34;5015194;28;20038;-53
2023/09/03 08:23:40;;;;;;;7.18;6.57;;;;;;;22.95;100.00;102713.19;5038775;28;20037;-51
2023/09/03 08:26:06;;;;;;;9.27;7.25;;;;;;;23.46;100.00;102771.28;5051870;28;20078;-54
2023/09/03 08:28:31;;;;;;;7.43;6.72;;;;;;;23.47;100.00;102776.56;5053266;28;20451;-51
2023/09/03 08:30:57;;;;;;;7.25;6.55;;;;;;;23.35;100.00;102728.00;5035432;28;20063;-54
2023/09/03 08:33:22;;;;;;;7.20;6.60;;;;;;;23.91;100.00;102767.78;5035382;28;20033;-50
2023/09/03 08:35:47;;;;;;;6.82;6.20;;;;;;;24.04;100.00;102766.13;5034972;28;20033;-56
2023/09/03 08:38:13;;;;;;;7.13;6.45;;;;;;;23.99;100.00;102736.78;5034908;28;20033;-56
2023/09/03 08:40:38;;;;;;;9.35;6.88;;;;;;;24.12;100.00;102719.94;5045751;28;20383;-52
2023/09/03 08:43:07;;;;;;;7.35;6.28;;;;;;;24.28;100.00;102751.25;5046403;28;20033;-54
2023/09/03 08:45:34;;;;;;;6.60;6.00;;;;;;;24.40;100.00;102763.13;5053113;28;20083;-53
2023/09/03 08:47:59;;;;;;;6.93;6.32;;;;;;;24.58;100.00;102762.84;5053010;28;20037;-51
2023/09/03 08:50:25;;;;;;;7.05;6.38;;;;;;;24.61;100.00;102775.25;5052852;28;20044;-50
2023/09/03 08:52:52;;;;;;;10.05;6.85;;;;;;;24.84;100.00;102765.81;5034378;28;20064;-50
2023/09/03 08:55:18;;;;;;;7.70;6.50;;;;;;;25.18;100.00;102760.03;5035207;28;20083;-52
2023/09/03 08:57:43;;;;;;;7.82;5.50;;;;;;;25.19;100.00;102737.50;5030428;28;20069;-52
2023/09/03 09:00:12;;;;;;;6.47;4.93;;;;;;;25.33;100.00;102726.72;5032787;28;20482;-54
2023/09/03 09:02:37;;;;;;;7.47;5.10;;;;;;;25.82;100.00;102753.19;5032633;28;20046;-54
2023/09/03 09:05:05;;;;;;;4.97;4.03;;;;;;;26.25;100.00;102788.03;5032472;28;20045;-52
2023/09/03 09:07:31;;;;;;;5.63;4.50;;;;;;;26.45;100.00;102785.78;5032744;28;20060;-55
2023/09/03 09:09:58;;;;;;;4.03;3.13;;;;;;;26.24;100.00;102731.44;5033227;28;20052;-49
2023/09/03 09:12:30;;;;;;;4.93;3.53;;;;;;;26.84;100.00;102804.69;5031870;28;20044;-49
2023/09/03 09:15:00;;;;;;;5.68;4.65;;;;;;;26.78;100.00;102748.34;5032984;28;20104;-53
2023/09/03 09:17:25;;;;;;;5.70;3.77;;;;;;;26.76;100.00;102758.41;5032077;28;20037;-49
2023/09/03 09:19:50;;;;;;;8.98;4.05;;;;;;;26.72;100.00;102795.56;5014694;28;20433;-50
2023/09/03 09:22:16;;;;;;;3.50;3.22;;;;;;;26.55;100.00;102809.38;5014950;28;20037;-53
2023/09/03 09:24:45;;;;;;;4.50;3.90;;;;;;;26.49;100.00;102804.41;5032648;28;20083;-54
2023/09/03 09:27:17;;;;;;;4.22;3.80;;;;;;;26.49;100.00;102800.84;5012979;28;20045;-50
2023/09/03 09:29:43;;;;;;;7.32;4.07;;;;;;;26.57;100.00;102790.34;5014167;28;20033;-53
2023/09/03 09:32:19;;;;;;;4.25;3.10;;;;;;;26.50;100.00;102807.97;5014413;28;20124;-49
2023/09/03 09:34:44;;;;;;;4.18;3.72;;;;;;;26.31;100.00;102734.59;5030852;28;20437;-50
2023/09/03 09:37:10;;;;;;;4.25;3.35;;;;;;;26.92;100.00;102796.03;5031673;28;20217;-51
2023/09/03 09:39:49;;;;;;;3.13;2.75;;;;;;;27.16;100.00;102794.31;5014476;28;20037;-56
2023/09/03 09:42:18;;;;;;;3.97;2.30;;;;;;;27.00;100.00;102748.56;5013831;28;20033;-54
2023/09/03 09:44:56;;;;;;;3.72;2.58;;;;;;;27.67;100.00;102803.22;5014663;28;20034;-50
2023/09/03 09:47:22;;;;;;;3.20;2.90;;;;;;;27.73;100.00;102762.19;5031119;28;20034;-48
2023/09/03 09:49:48;;;;;;;2.97;2.50;;;;;;;27.82;100.00;102735.28;5014216;28;20026;-59
2023/09/03 09:52:18;;;;;;;4.20;2.92;;;;;;;28.14;100.00;102740.16;5032276;28;20076;-49
2023/09/03 09:57:24;;;;;;;3.00;2.70;;;;;;;28.59;100.00;102790.75;5220219;22;20080;-50
2023/09/03 09:59:59;;;;;;;3.17;2.88;;;;;;;28.69;100.00;102753.84;5070938;28;20472;-54
2023/09/03 10:02:25;;;;;;;4.60;2.95;;;;;;;28.89;100.00;102798.38;5071507;28;20025;-49
2023/09/03 10:04:53;;;;;;;3.35;3.03;;;;;;;28.99;100.00;102802.94;5071540;28;20099;-52
2023/09/03 10:07:19;;;;;;;4.63;4.13;;;;;;;28.47;100.00;102754.66;5071489;28;20119;-58
2023/09/03 10:09:45;;;;;;;3.97;3.60;;;;;;;28.00;100.00;102753.81;5053335;28;20111;-52
2023/09/03 10:12:11;;;;;;;5.43;3.72;;;;;;;27.96;100.00;102801.94;5071574;28;20072;-49
2023/09/03 10:14:37;;;;;;;6.82;6.22;;;;;;;27.62;100.00;102792.72;5053818;28;20020;-49
2023/09/03 10:17:05;;;;;;;4.65;3.15;;;;;;;27.66;100.00;102752.78;5069614;28;20476;-50
2023/09/03 10:19:51;;;;;;;4.18;2.75;;;;;;;27.71;100.00;102797.47;5053738;28;20028;-54
2023/09/03 10:22:19;;;;;;;3.40;3.10;;;;;;;27.36;100.00;102747.75;5071361;28;20481;-49
2023/09/03 10:24:47;;;;;;;4.18;2.90;;;;;;;27.70;100.00;102789.47;5071766;28;20036;-55
2023/09/03 10:27:15;;;;;;;3.50;2.47;;;;;;;27.76;100.00;102811.50;5071692;28;20500;-55
2023/09/03 10:29:42;;;;;;;2.45;2.25;;;;;;;27.69;100.00;102712.84;5054481;28;20060;-53
2023/09/03 10:32:08;;;;;;;4.50;2.53;;;;;;;28.49;100.00;102782.47;5075578;28;20063;-51
2023/09/03 10:34:36;;;;;;;3.22;2.47;;;;;;;29.02;100.00;102750.31;5055818;28;20068;-52
2023/09/03 10:37:08;;;;;;;5.35;3.42;;;;;;;28.62;100.00;102804.06;5057483;28;20025;-49
2023/09/03 10:39:35;;;;;;;4.65;2.92;;;;;;;28.01;100.00;102729.34;5075293;28;20097;-55
2023/09/03 10:42:16;;;;;;;2.88;2.40;;;;;;;28.18;100.00;102810.19;5057555;28;20489;-54
2023/09/03 10:44:43;;;;;;;5.85;2.58;;;;;;;28.10;100.00;102811.75;5075244;28;20029;-50
2023/09/03 10:47:11;;;;;;;2.63;2.00;;;;;;;27.98;100.00;102790.97;5074804;28;20455;-55
2023/09/03 10:49:50;;;;;;;4.40;4.10;;;;;;;27.90;100.00;102759.09;5073178;28;20182;-51
2023/09/03 10:52:31;;;;;;;3.45;3.08;;;;;;;28.35;100.00;102808.91;5075010;28;20036;-53
2023/09/03 10:55:21;;;;;;;3.17;2.38;;;;;;;28.59;100.00;102803.44;5074568;28;20551;-55
2023/09/03 10:58:08;;;;;;;3.80;2.60;;;;;;;29.09;100.00;102811.22;5074714;28;20055;-54
2023/09/03 11:00:33;;;;;;;3.45;3.15;;;;;;;29.07;100.00;102810.47;5073798;28;20139;-52
2023/09/03 11:03:18;;;;;;;3.70;2.58;;;;;;;29.36;100.00;102760.22;5074455;28;20470;-53
2023/09/03 11:06:21;;;;;;;3.10;2.55;;;;;;;30.03;100.00;102809.81;5054897;28;20029;-53
2023/09/03 11:08:48;;;;;;;2.53;2.33;;;;;;;29.68;100.00;102767.53;5074451;28;20083;-53
2023/09/03 11:11:20;;;;;;;5.50;2.60;;;;;;;29.38;100.00;102749.22;5072716;28;20481;-50
2023/09/03 11:13:50;;;;;;;3.33;1.98;;;;;;;30.02;100.00;102761.03;5072528;28;20381;-51